createdAt,value
2022-12-08T00:00:11.866Z,4.31
2022-12-08T00:01:11.847Z,4.33
2022-12-08T00:02:12.249Z,4.3
2022-12-08T00:03:11.889Z,4.33
2022-12-08T00:04:11.761Z,4.34
2022-12-08T00:05:12.203Z,4.38
2022-12-08T00:06:11.810Z,4.41
2022-12-08T00:07:17.776Z,4.4
2022-12-08T00:08:12.052Z,4.46
2022-12-08T00:09:11.959Z,4.48
2022-12-08T00:10:46.627Z,4.49
2022-12-08T00:11:11.757Z,4.46
2022-12-08T00:12:12.195Z,4.36
2022-12-08T00:13:11.869Z,4.33
2022-12-08T00:14:11.839Z,4.28
2022-12-08T00:15:11.741Z,4.25
2022-12-08T00:16:11.944Z,4.31
2022-12-08T00:17:12.117Z,4.34
2022-12-08T00:18:14.936Z,4.35
2022-12-08T00:19:11.910Z,4.4
2022-12-08T00:20:12.199Z,4.43
2022-12-08T00:21:11.771Z,4.48
2022-12-08T00:22:12.105Z,4.56
2022-12-08T00:23:11.836Z,4.61
2022-12-08T00:24:11.867Z,4.7
2022-12-08T00:25:11.761Z,4.75
2022-12-08T00:26:11.921Z,4.75
2022-12-08T00:27:12.122Z,4.71
2022-12-08T00:28:11.846Z,4.7
2022-12-08T00:29:17.539Z,4.72
2022-12-08T00:30:11.822Z,4.7
2022-12-08T00:31:11.755Z,4.7
2022-12-08T00:32:12.258Z,4.73
2022-12-08T00:33:11.850Z,4.74
2022-12-08T00:34:11.878Z,4.77
2022-12-08T00:35:12.111Z,4.78
2022-12-08T00:36:11.876Z,4.8
2022-12-08T00:37:12.112Z,4.81
2022-12-08T00:38:11.865Z,4.8
2022-12-08T00:39:11.773Z,4.82
2022-12-08T00:40:14.878Z,4.84
2022-12-08T00:41:11.837Z,4.87
2022-12-08T00:42:12.442Z,4.89
2022-12-08T00:43:11.898Z,4.92
2022-12-08T00:44:11.746Z,4.93
2022-12-08T00:45:11.838Z,4.95
2022-12-08T00:46:11.929Z,4.93
2022-12-08T00:47:12.186Z,4.9
2022-12-08T00:48:11.844Z,4.9
2022-12-08T00:49:11.761Z,4.87
2022-12-08T00:50:12.313Z,4.79
2022-12-08T00:51:14.903Z,4.77
2022-12-08T00:52:12.159Z,4.75
2022-12-08T00:53:11.942Z,4.76
2022-12-08T00:54:11.752Z,4.7
2022-12-08T00:55:11.756Z,4.73
2022-12-08T00:56:11.947Z,4.72
2022-12-08T00:57:12.107Z,4.71
2022-12-08T00:58:12.189Z,4.72
2022-12-08T00:59:11.842Z,4.7
2022-12-08T01:00:11.750Z,4.69
2022-12-08T01:01:11.905Z,4.69
2022-12-08T01:02:14.787Z,4.69
2022-12-08T01:03:12.224Z,4.65
2022-12-08T01:04:11.909Z,4.63
2022-12-08T01:05:12.184Z,4.63
2022-12-08T01:06:12.114Z,4.63
2022-12-08T01:07:11.850Z,4.63
2022-12-08T01:08:12.156Z,4.6
2022-12-08T01:09:11.851Z,4.59
2022-12-08T01:10:11.740Z,4.59
2022-12-08T01:11:11.874Z,4.62
2022-12-08T01:12:11.810Z,4.64
2022-12-08T01:13:17.806Z,4.62
2022-12-08T01:14:11.932Z,4.63
2022-12-08T01:15:11.780Z,4.64
2022-12-08T01:16:11.947Z,4.67
2022-12-08T01:17:11.820Z,4.69
2022-12-08T01:18:12.187Z,4.74
2022-12-08T01:19:11.996Z,4.78
2022-12-08T01:20:11.896Z,4.81
2022-12-08T01:21:12.108Z,4.86
2022-12-08T01:22:11.851Z,4.89
2022-12-08T01:23:12.151Z,4.88
2022-12-08T01:24:14.902Z,4.85
2022-12-08T01:25:11.772Z,4.83
2022-12-08T01:26:11.742Z,4.82
2022-12-08T01:27:11.936Z,4.82
2022-12-08T01:28:12.232Z,4.8
2022-12-08T01:29:11.869Z,4.79
2022-12-08T01:30:11.770Z,4.8
2022-12-08T01:31:11.941Z,4.82
2022-12-08T01:32:11.931Z,4.83
2022-12-08T01:33:12.186Z,4.83
2022-12-08T01:34:11.827Z,4.82
2022-12-08T01:35:14.782Z,4.8
2022-12-08T01:36:12.191Z,4.75
2022-12-08T01:37:11.929Z,4.73
2022-12-08T01:38:12.106Z,4.78
2022-12-08T01:39:11.833Z,4.76
2022-12-08T01:40:11.767Z,4.73
2022-12-08T01:41:11.892Z,4.71
2022-12-08T01:42:11.836Z,4.72
2022-12-08T01:43:12.367Z,4.74
2022-12-08T01:44:11.841Z,4.79
2022-12-08T01:45:11.884Z,4.78
2022-12-08T01:46:15.021Z,4.83
2022-12-08T01:47:11.981Z,4.89
2022-12-08T01:48:12.252Z,4.93
2022-12-08T01:49:11.916Z,4.95
2022-12-08T01:50:11.862Z,4.94
2022-12-08T01:51:12.190Z,4.97
2022-12-08T01:52:11.788Z,4.97
2022-12-08T01:53:12.193Z,4.95
2022-12-08T01:54:11.831Z,4.94
2022-12-08T01:55:11.819Z,4.98
2022-12-08T01:56:11.792Z,5.05
2022-12-08T01:57:14.762Z,5.07
2022-12-08T01:58:12.111Z,4.99
2022-12-08T01:59:11.814Z,4.95
2022-12-08T02:00:16.644Z,4.95
2022-12-08T02:01:11.953Z,4.96
2022-12-08T02:02:11.767Z,5
2022-12-08T02:03:12.115Z,5.05
2022-12-08T02:04:11.743Z,5.04
2022-12-08T02:05:11.847Z,5.05
2022-12-08T02:06:12.177Z,5.05
2022-12-08T02:07:11.947Z,5.03
2022-12-08T02:08:17.880Z,4.99
2022-12-08T02:09:11.829Z,4.95
2022-12-08T02:10:11.874Z,4.96
2022-12-08T02:11:11.759Z,4.96
2022-12-08T02:12:11.726Z,4.94
2022-12-08T02:13:12.207Z,4.96
2022-12-08T02:14:11.737Z,4.97
2022-12-08T02:15:11.866Z,4.97
2022-12-08T02:16:12.021Z,4.97
2022-12-08T02:17:11.764Z,4.98
2022-12-08T02:18:12.183Z,4.96
2022-12-08T02:19:30.791Z,4.96
2022-12-08T02:20:11.933Z,4.96
2022-12-08T02:21:12.180Z,4.98
2022-12-08T02:22:11.920Z,4.99
2022-12-08T02:23:12.232Z,4.97
2022-12-08T02:24:11.908Z,4.99
2022-12-08T02:25:11.881Z,4.96
2022-12-08T02:26:11.905Z,4.95
2022-12-08T02:27:11.851Z,4.93
2022-12-08T02:28:12.181Z,4.94
2022-12-08T02:29:11.987Z,4.97
2022-12-08T02:30:14.903Z,4.97
2022-12-08T02:31:12.059Z,4.95
2022-12-08T02:32:11.846Z,4.97
2022-12-08T02:33:12.182Z,4.97
2022-12-08T02:34:11.840Z,4.99
2022-12-08T02:35:11.902Z,4.98
2022-12-08T02:36:12.113Z,4.98
2022-12-08T02:37:11.898Z,4.99
2022-12-08T02:38:12.108Z,5
2022-12-08T02:39:11.751Z,5
2022-12-08T02:40:11.928Z,5.01
2022-12-08T02:41:15.020Z,5.01
2022-12-08T02:42:11.789Z,5.01
2022-12-08T02:43:12.185Z,4.96
2022-12-08T02:44:11.870Z,4.99
2022-12-08T02:45:11.770Z,4.98
2022-12-08T02:46:12.040Z,4.95
2022-12-08T02:47:11.764Z,4.92
2022-12-08T02:48:12.187Z,4.89
2022-12-08T02:49:11.839Z,4.84
2022-12-08T02:50:11.860Z,4.79
2022-12-08T02:51:12.107Z,4.77
2022-12-08T02:52:14.782Z,4.77
2022-12-08T02:54:19.473Z,4.88
2022-12-08T02:55:19.553Z,4.89
2022-12-08T02:56:19.649Z,4.93
2022-12-08T02:57:19.786Z,4.93
2022-12-08T02:58:19.465Z,4.95
2022-12-08T02:59:22.519Z,4.93
2022-12-08T03:00:19.499Z,4.91
2022-12-08T03:01:19.593Z,4.91
2022-12-08T03:02:19.939Z,4.9
2022-12-08T03:03:19.600Z,4.89
2022-12-08T03:04:19.405Z,4.9
2022-12-08T03:05:19.755Z,4.9
2022-12-08T03:06:19.415Z,4.89
2022-12-08T03:07:19.893Z,4.89
2022-12-08T03:08:19.729Z,4.9
2022-12-08T03:09:19.549Z,4.93
2022-12-08T03:10:22.524Z,4.98
2022-12-08T03:11:19.464Z,5.06
2022-12-08T03:12:19.897Z,5.06
2022-12-08T03:13:19.489Z,5.14
2022-12-08T03:14:19.500Z,5.15
2022-12-08T03:15:19.565Z,5.18
2022-12-08T03:16:19.576Z,5.19
2022-12-08T03:17:19.894Z,5.23
2022-12-08T03:18:19.641Z,5.2
2022-12-08T03:19:19.500Z,5.23
2022-12-08T03:20:19.830Z,5.25
2022-12-08T03:21:22.520Z,5.28
2022-12-08T03:22:19.784Z,5.31
2022-12-08T03:23:19.507Z,5.3
2022-12-08T03:24:19.565Z,5.33
2022-12-08T03:25:19.630Z,5.34
2022-12-08T03:26:19.625Z,5.33
2022-12-08T03:27:19.799Z,5.28
2022-12-08T03:28:19.491Z,5.27
2022-12-08T03:29:19.507Z,5.27
2022-12-08T03:30:19.631Z,5.28
2022-12-08T03:31:19.690Z,5.25
2022-12-08T03:32:25.510Z,5.17
2022-12-08T03:33:19.510Z,5.14
2022-12-08T03:34:19.421Z,5.14
2022-12-08T03:35:19.833Z,5.15
2022-12-08T03:36:19.603Z,5.18
2022-12-08T03:37:19.845Z,5.15
2022-12-08T03:38:19.409Z,5.13
2022-12-08T03:39:19.544Z,5.11
2022-12-08T03:40:19.559Z,5.07
2022-12-08T03:41:19.407Z,5.05
2022-12-08T03:42:19.835Z,5.04
2022-12-08T03:43:19.400Z,5.04
2022-12-08T03:44:19.399Z,5.02
2022-12-08T03:45:19.559Z,4.98
2022-12-08T03:47:26.658Z,4.94
2022-12-08T03:48:26.256Z,4.94
2022-12-08T03:49:26.465Z,4.96
2022-12-08T03:50:26.601Z,4.99
2022-12-08T03:51:26.296Z,4.96
2022-12-08T03:52:32.393Z,4.98
2022-12-08T03:53:26.434Z,5.03
2022-12-08T03:54:26.352Z,5.06
2022-12-08T03:55:26.380Z,5.06
2022-12-08T03:56:26.276Z,5.03
2022-12-08T03:57:26.675Z,5.02
2022-12-08T03:58:26.351Z,5.02
2022-12-08T03:59:26.251Z,5.08
2022-12-08T04:00:26.226Z,5.14
2022-12-08T04:01:26.411Z,5.05
2022-12-08T04:02:26.654Z,5.05
2022-12-08T04:03:29.268Z,5.03
2022-12-08T04:04:26.309Z,5.03
2022-12-08T04:05:26.595Z,5.06
2022-12-08T04:06:26.227Z,5.05
2022-12-08T04:07:26.595Z,5
2022-12-08T04:08:26.330Z,4.96
2022-12-08T04:09:26.352Z,4.95
2022-12-08T04:10:26.235Z,4.99
2022-12-08T04:11:26.289Z,5.02
2022-12-08T04:12:26.598Z,5.05
2022-12-08T04:13:26.359Z,5.16
2022-12-08T04:14:29.302Z,5.17
2022-12-08T04:15:26.463Z,5.13
2022-12-08T04:16:26.396Z,5.06
2022-12-08T04:17:26.717Z,5.08
2022-12-08T04:18:26.324Z,5.13
2022-12-08T04:19:26.386Z,5.11
2022-12-08T04:20:26.586Z,5.1
2022-12-08T04:21:26.375Z,5.13
2022-12-08T04:22:26.589Z,5.11
2022-12-08T04:23:26.334Z,5.13
2022-12-08T04:24:26.347Z,5.15
2022-12-08T04:25:29.239Z,5.16
2022-12-08T04:26:26.459Z,5.15
2022-12-08T04:27:26.660Z,5.14
2022-12-08T04:28:26.474Z,5.15
2022-12-08T04:29:26.302Z,5.2
2022-12-08T04:30:26.327Z,5.19
2022-12-08T04:31:26.298Z,5.14
2022-12-08T04:32:26.673Z,5.09
2022-12-08T04:33:26.476Z,5.06
2022-12-08T04:34:26.316Z,5.06
2022-12-08T04:35:26.669Z,5.07
2022-12-08T04:36:29.255Z,5.03
2022-12-08T04:37:26.599Z,4.98
2022-12-08T04:38:26.320Z,4.94
2022-12-08T04:39:26.335Z,4.94
2022-12-08T04:40:28.737Z,4.94
2022-12-08T04:41:26.325Z,4.92
2022-12-08T04:42:26.599Z,4.9
2022-12-08T04:43:26.233Z,4.86
2022-12-08T04:44:26.239Z,4.84
2022-12-08T04:45:26.374Z,4.83
2022-12-08T04:46:26.464Z,4.82
2022-12-08T04:47:32.326Z,4.83
2022-12-08T04:48:26.418Z,4.87
2022-12-08T04:49:26.330Z,4.89
2022-12-08T04:50:26.665Z,4.88
2022-12-08T04:51:26.332Z,4.9
2022-12-08T04:52:26.665Z,4.93
2022-12-08T04:53:26.231Z,4.97
2022-12-08T04:54:26.349Z,5.03
2022-12-08T04:55:26.332Z,5.01
2022-12-08T04:56:26.314Z,5.01
2022-12-08T04:57:26.667Z,4.98
2022-12-08T04:58:29.291Z,4.97
2022-12-08T04:59:26.302Z,4.94
2022-12-08T05:00:26.246Z,4.97
2022-12-08T05:01:26.360Z,4.97
2022-12-08T05:02:26.763Z,4.97
2022-12-08T05:03:28.757Z,4.96
2022-12-08T05:04:26.356Z,4.96
2022-12-08T05:05:26.670Z,4.96
2022-12-08T05:06:26.477Z,5.04
2022-12-08T05:07:26.636Z,5.03
2022-12-08T05:08:26.421Z,5
2022-12-08T05:09:29.411Z,4.9
2022-12-08T05:10:26.428Z,4.86
2022-12-08T05:11:26.248Z,4.87
2022-12-08T05:12:26.604Z,4.89
2022-12-08T05:13:26.301Z,4.88
2022-12-08T05:14:26.335Z,4.85
2022-12-08T05:15:26.365Z,4.86
2022-12-08T05:16:26.508Z,4.85
2022-12-08T05:17:26.638Z,4.86
2022-12-08T05:18:26.305Z,4.86
2022-12-08T05:19:26.235Z,4.87
2022-12-08T05:20:32.451Z,4.91
2022-12-08T05:21:26.446Z,4.88
2022-12-08T05:22:26.592Z,4.86
2022-12-08T05:23:26.312Z,4.84
2022-12-08T05:24:26.377Z,4.84
2022-12-08T05:25:26.442Z,4.83
2022-12-08T05:26:26.364Z,4.84
2022-12-08T05:27:26.671Z,4.83
2022-12-08T05:28:41.455Z,4.81
2022-12-08T05:29:26.398Z,4.81
2022-12-08T05:30:26.328Z,4.82
2022-12-08T05:31:29.364Z,4.84
2022-12-08T05:32:26.595Z,4.84
2022-12-08T05:33:26.411Z,4.83
2022-12-08T05:34:26.237Z,4.9
2022-12-08T05:35:26.662Z,4.91
2022-12-08T05:36:26.306Z,4.9
2022-12-08T05:37:26.597Z,4.85
2022-12-08T05:38:26.225Z,4.79
2022-12-08T05:39:26.326Z,4.75
2022-12-08T05:40:26.358Z,4.74
2022-12-08T05:41:26.286Z,4.73
2022-12-08T05:42:32.303Z,4.73
2022-12-08T05:43:26.349Z,4.71
2022-12-08T05:44:26.335Z,4.67
2022-12-08T05:45:26.352Z,4.68
2022-12-08T05:46:26.326Z,4.66
2022-12-08T05:47:27.531Z,4.64
2022-12-08T05:48:26.243Z,4.62
2022-12-08T05:49:26.373Z,4.58
2022-12-08T05:50:26.651Z,4.61
2022-12-08T05:51:26.414Z,4.71
2022-12-08T05:52:26.670Z,4.72
2022-12-08T05:53:29.386Z,4.8
2022-12-08T05:54:26.304Z,4.82
2022-12-08T05:55:26.241Z,4.84
2022-12-08T05:56:26.361Z,4.9
2022-12-08T05:57:26.590Z,4.91
2022-12-08T05:58:26.405Z,4.97
2022-12-08T05:59:26.350Z,4.95
2022-12-08T06:00:26.276Z,4.95
2022-12-08T06:01:26.341Z,4.98
2022-12-08T06:02:26.783Z,4.99
2022-12-08T06:03:26.485Z,4.99
2022-12-08T06:04:29.253Z,4.95
2022-12-08T06:05:26.596Z,4.94
2022-12-08T06:06:26.308Z,4.96
2022-12-08T06:07:26.674Z,4.98
2022-12-08T06:08:26.500Z,4.98
2022-12-08T06:09:26.224Z,4.96
2022-12-08T06:10:26.238Z,4.99
2022-12-08T06:11:26.292Z,4.93
2022-12-08T06:12:26.600Z,4.91
2022-12-08T06:13:26.296Z,4.94
2022-12-08T06:14:26.368Z,4.98
2022-12-08T06:15:29.301Z,4.93
2022-12-08T06:16:26.616Z,4.91
2022-12-08T06:17:26.713Z,4.9
2022-12-08T06:18:31.118Z,4.93
2022-12-08T06:19:26.368Z,4.96
2022-12-08T06:20:26.592Z,5.01
2022-12-08T06:21:26.247Z,4.97
2022-12-08T06:22:26.711Z,4.96
2022-12-08T06:23:26.316Z,4.98
2022-12-08T06:24:26.380Z,4.94
2022-12-08T06:25:26.321Z,4.9
2022-12-08T06:26:29.408Z,4.87
2022-12-08T06:27:26.607Z,4.84
2022-12-08T06:28:26.324Z,4.79
2022-12-08T06:29:26.240Z,4.77
2022-12-08T06:30:26.239Z,4.77
2022-12-08T06:31:26.554Z,4.72
2022-12-08T06:32:27.684Z,4.65
2022-12-08T06:33:26.302Z,4.59
2022-12-08T06:34:26.394Z,4.58
2022-12-08T06:35:26.670Z,4.55
2022-12-08T06:36:26.377Z,4.59
2022-12-08T06:37:32.361Z,4.61
2022-12-08T06:38:26.416Z,4.6
2022-12-08T06:39:26.242Z,4.6
2022-12-08T06:40:26.233Z,4.6
2022-12-08T06:41:26.306Z,4.58
2022-12-08T06:42:26.665Z,4.59
2022-12-08T06:43:26.250Z,4.55
2022-12-08T06:44:26.370Z,4.59
2022-12-08T06:45:26.381Z,4.62
2022-12-08T06:46:26.324Z,4.64
2022-12-08T06:47:26.666Z,4.63
2022-12-08T06:48:29.413Z,4.58
2022-12-08T06:49:26.358Z,4.64
2022-12-08T06:50:26.665Z,4.64
2022-12-08T06:51:26.311Z,4.59
2022-12-08T06:52:26.668Z,4.61
2022-12-08T06:53:26.346Z,4.6
2022-12-08T06:54:26.360Z,4.53
2022-12-08T06:55:57.203Z,4.54
2022-12-08T06:56:26.313Z,4.46
2022-12-08T06:57:26.685Z,4.4
2022-12-08T06:58:26.353Z,4.37
2022-12-08T06:59:29.238Z,4.32
2022-12-08T07:00:26.449Z,4.37
2022-12-08T07:01:26.525Z,4.28
2022-12-08T07:02:26.630Z,4.26
2022-12-08T07:03:26.219Z,4.29
2022-12-08T07:04:26.319Z,4.28
2022-12-08T07:05:27.735Z,4.21
2022-12-08T07:06:26.226Z,4.24
2022-12-08T07:07:26.667Z,4.18
2022-12-08T07:08:26.411Z,4.18
2022-12-08T07:09:26.243Z,4.23
2022-12-08T07:10:29.346Z,4.25
2022-12-08T07:11:26.371Z,4.21
2022-12-08T07:12:26.596Z,4.2
2022-12-08T07:13:26.442Z,4.15
2022-12-08T07:14:26.446Z,4.14
2022-12-08T07:15:26.405Z,4.29
2022-12-08T07:16:26.413Z,4.29
2022-12-08T07:17:26.661Z,4.27
2022-12-08T07:18:26.324Z,4.29
2022-12-08T07:19:26.381Z,4.21
2022-12-08T07:20:26.776Z,4.24
2022-12-08T07:21:29.340Z,4.25
2022-12-08T07:22:26.326Z,4.21
2022-12-08T07:23:26.274Z,4.27
2022-12-08T07:24:26.303Z,4.23
2022-12-08T07:25:26.212Z,4.21
2022-12-08T07:26:26.230Z,4.24
2022-12-08T07:27:26.596Z,4.24
2022-12-08T07:28:26.426Z,4.26
2022-12-08T07:29:26.588Z,4.28
2022-12-08T07:30:26.396Z,4.26
2022-12-08T07:31:26.335Z,4.24
2022-12-08T07:32:32.315Z,4.28
2022-12-08T07:33:26.446Z,4.24
2022-12-08T07:34:26.453Z,4.24
2022-12-08T07:35:26.595Z,4.25
2022-12-08T07:36:26.329Z,4.26
2022-12-08T07:37:26.663Z,4.24
2022-12-08T07:38:26.379Z,4.24
2022-12-08T07:39:26.224Z,4.27
2022-12-08T07:40:26.232Z,4.26
2022-12-08T07:41:26.210Z,4.28
2022-12-08T07:42:26.665Z,4.3
2022-12-08T07:43:29.389Z,4.29
2022-12-08T07:44:26.425Z,4.28
2022-12-08T07:45:31.463Z,4.28
2022-12-08T07:46:26.498Z,4.33
2022-12-08T07:47:26.602Z,4.35
2022-12-08T07:48:26.312Z,4.33
2022-12-08T07:49:26.238Z,4.36
2022-12-08T07:50:26.671Z,4.38
2022-12-08T07:51:26.224Z,4.36
2022-12-08T07:52:26.675Z,4.37
2022-12-08T07:53:26.298Z,4.34
2022-12-08T07:54:29.376Z,4.33
2022-12-08T07:55:26.315Z,4.28
2022-12-08T07:56:26.260Z,4.3
2022-12-08T07:57:26.717Z,4.32
2022-12-08T07:58:26.429Z,4.36
2022-12-08T07:59:26.315Z,4.32
2022-12-08T08:00:26.425Z,4.36
2022-12-08T08:01:26.555Z,4.29
2022-12-08T08:02:27.005Z,4.29
2022-12-08T08:03:26.398Z,4.3
2022-12-08T08:04:26.417Z,4.4
2022-12-08T08:05:26.600Z,4.41
2022-12-08T08:06:26.244Z,4.41
2022-12-08T08:07:26.590Z,4.4
2022-12-08T08:08:26.335Z,4.4
2022-12-08T08:09:26.243Z,4.42
2022-12-08T08:10:29.307Z,4.43
2022-12-08T08:11:26.289Z,4.42
2022-12-08T08:12:31.867Z,4.42
2022-12-08T08:13:26.329Z,4.41
2022-12-08T08:14:26.220Z,4.45
2022-12-08T08:15:26.240Z,4.42
2022-12-08T08:16:26.399Z,4.4
2022-12-08T08:17:26.862Z,4.41
2022-12-08T08:18:26.324Z,4.44
2022-12-08T08:19:26.332Z,4.48
2022-12-08T08:20:26.675Z,4.52
2022-12-08T08:21:44.971Z,4.51
2022-12-08T08:22:26.594Z,4.52
2022-12-08T08:23:26.447Z,4.54
2022-12-08T08:24:26.334Z,4.57
2022-12-08T08:25:26.372Z,4.61
2022-12-08T08:26:26.334Z,4.64
2022-12-08T08:27:26.595Z,4.66
2022-12-08T08:28:26.302Z,4.69
2022-12-08T08:29:26.228Z,4.73
2022-12-08T08:30:26.376Z,4.7
2022-12-08T08:31:26.405Z,4.76
2022-12-08T08:32:32.347Z,4.86
2022-12-08T08:33:26.399Z,4.91
2022-12-08T08:34:26.301Z,4.94
2022-12-08T08:35:26.664Z,4.96
2022-12-08T08:36:26.432Z,4.98
2022-12-08T08:37:26.720Z,4.95
2022-12-08T08:38:26.223Z,5
2022-12-08T08:39:26.251Z,4.99
2022-12-08T08:40:26.360Z,5.04
2022-12-08T08:41:26.298Z,5.04
2022-12-08T08:42:26.667Z,5.05
2022-12-08T08:43:34.351Z,5.02
2022-12-08T08:44:26.449Z,5.02
2022-12-08T08:45:26.320Z,5.03
2022-12-08T08:46:26.265Z,5.07
2022-12-08T08:47:26.666Z,5.07
2022-12-08T08:48:26.335Z,5.04
2022-12-08T08:49:26.262Z,5.04
2022-12-08T08:50:26.669Z,5.02
2022-12-08T08:51:26.424Z,5.04
2022-12-08T08:52:26.682Z,5.06
2022-12-08T08:53:26.262Z,5.05
2022-12-08T08:54:26.219Z,5.06
2022-12-08T08:55:26.230Z,5.09
2022-12-08T08:56:26.397Z,5.07
2022-12-08T08:57:26.607Z,5.12
2022-12-08T08:58:26.327Z,5.21
2022-12-08T08:59:29.376Z,5.23
2022-12-08T09:00:26.319Z,5.23
2022-12-08T09:01:26.375Z,5.22
2022-12-08T09:02:26.601Z,5.27
2022-12-08T09:03:26.447Z,5.36
2022-12-08T09:04:26.531Z,5.41
2022-12-08T09:05:26.605Z,5.53
2022-12-08T09:06:26.480Z,5.54
2022-12-08T09:07:26.592Z,5.53
2022-12-08T09:08:26.401Z,5.53
2022-12-08T09:09:26.388Z,5.61
2022-12-08T09:10:29.273Z,5.66
2022-12-08T09:11:26.287Z,5.72
2022-12-08T09:12:26.603Z,5.74
2022-12-08T09:13:26.432Z,5.9
2022-12-08T09:14:26.248Z,5.92
2022-12-08T09:15:26.233Z,5.92
2022-12-08T09:16:26.339Z,5.9
2022-12-08T09:17:26.677Z,5.9
2022-12-08T09:18:26.306Z,5.89
2022-12-08T09:19:26.345Z,5.96
2022-12-08T09:20:26.671Z,6.02
2022-12-08T09:21:29.254Z,6.16
2022-12-08T09:22:26.598Z,6.18
2022-12-08T09:23:33.768Z,6.24
2022-12-08T09:24:26.432Z,6.17
2022-12-08T09:25:26.242Z,6.16
2022-12-08T09:26:26.217Z,6.15
2022-12-08T09:27:26.608Z,6.27
2022-12-08T09:28:26.379Z,6.28
2022-12-08T09:29:31.086Z,6.2
2022-12-08T09:30:26.321Z,6.15
2022-12-08T09:31:26.317Z,6.16
2022-12-08T09:32:32.259Z,6.22
2022-12-08T09:33:26.322Z,6.27
2022-12-08T09:34:26.244Z,6.32
2022-12-08T09:35:26.717Z,6.48
2022-12-08T09:36:26.349Z,6.46
2022-12-08T09:37:26.939Z,6.5
2022-12-08T09:38:26.353Z,6.51
2022-12-08T09:39:26.218Z,6.56
2022-12-08T09:40:26.374Z,6.62
2022-12-08T09:41:29.438Z,6.64
2022-12-08T09:42:26.663Z,6.65
2022-12-08T09:43:26.337Z,6.64
2022-12-08T09:44:26.370Z,6.61
2022-12-08T09:45:26.320Z,6.58
2022-12-08T09:46:26.284Z,6.61
2022-12-08T09:47:29.483Z,6.61
2022-12-08T09:48:29.256Z,6.6
2022-12-08T09:49:26.311Z,6.64
2022-12-08T09:50:26.664Z,6.6
2022-12-08T09:51:26.339Z,6.57
2022-12-08T09:52:26.668Z,6.56
2022-12-08T09:53:30.618Z,6.65
2022-12-08T09:54:26.264Z,6.65
2022-12-08T09:55:26.328Z,6.66
2022-12-08T09:56:26.437Z,6.61
2022-12-08T09:57:26.720Z,6.71
2022-12-08T09:58:26.331Z,6.82
2022-12-08T09:59:29.269Z,6.94
2022-12-08T10:00:26.353Z,7.08
2022-12-08T10:01:26.447Z,7.07
2022-12-08T10:02:26.662Z,7.08
2022-12-08T10:03:26.421Z,7.13
2022-12-08T10:04:26.366Z,7.28
2022-12-08T10:05:26.716Z,7.38
2022-12-08T10:06:26.248Z,7.46
2022-12-08T10:07:26.608Z,7.54
2022-12-08T10:08:26.520Z,7.51
2022-12-08T10:09:26.256Z,7.59
2022-12-08T10:10:26.234Z,7.62
2022-12-08T10:11:26.230Z,7.68
2022-12-08T10:12:26.627Z,7.7
2022-12-08T10:13:26.320Z,7.72
2022-12-08T10:14:26.245Z,7.53
2022-12-08T10:15:29.413Z,7.5
2022-12-08T10:16:29.719Z,7.46
2022-12-08T10:17:26.638Z,7.44
2022-12-08T10:18:26.424Z,7.52
2022-12-08T10:19:26.245Z,7.56
2022-12-08T10:20:26.720Z,7.64
2022-12-08T10:21:26.380Z,7.72
2022-12-08T10:22:26.600Z,7.58
2022-12-08T10:23:26.332Z,7.51
2022-12-08T10:24:26.222Z,7.55
2022-12-08T10:25:26.306Z,7.62
2022-12-08T10:26:29.336Z,7.59
2022-12-08T10:27:26.599Z,7.58
2022-12-08T10:28:26.403Z,7.55
2022-12-08T10:29:26.339Z,7.44
2022-12-08T10:30:26.328Z,7.47
2022-12-08T10:31:26.279Z,7.43
2022-12-08T10:32:26.601Z,7.31
2022-12-08T10:33:26.238Z,7.21
2022-12-08T10:34:26.345Z,7.09
2022-12-08T10:35:26.666Z,7.04
2022-12-08T10:36:26.464Z,7.04
2022-12-08T10:37:32.294Z,6.99
2022-12-08T10:38:26.453Z,6.96
2022-12-08T10:39:26.226Z,6.88
2022-12-08T10:40:26.235Z,6.79
2022-12-08T10:41:26.416Z,6.84
2022-12-08T10:42:28.772Z,6.9
2022-12-08T10:43:26.243Z,6.98
2022-12-08T10:44:26.348Z,6.96
2022-12-08T10:45:26.342Z,6.93
2022-12-08T10:46:26.506Z,6.97
2022-12-08T10:47:26.615Z,6.93
2022-12-08T10:48:29.363Z,6.98
2022-12-08T10:49:26.309Z,7.12
2022-12-08T10:50:26.724Z,7.18
2022-12-08T10:51:26.319Z,7.21
2022-12-08T10:52:26.676Z,7.2
2022-12-08T10:53:26.451Z,7.16
2022-12-08T10:54:26.370Z,7.17
2022-12-08T10:55:26.235Z,7.22
2022-12-08T10:56:26.245Z,7.26
2022-12-08T10:57:26.669Z,7.34
2022-12-08T10:58:26.402Z,7.41
2022-12-08T10:59:29.382Z,7.41
2022-12-08T11:00:26.401Z,7.4
2022-12-08T11:01:26.374Z,7.42
2022-12-08T11:02:26.942Z,7.52
2022-12-08T11:03:26.309Z,7.55
2022-12-08T11:04:26.268Z,7.58
2022-12-08T11:05:26.594Z,7.64
2022-12-08T11:06:26.380Z,7.7
2022-12-08T11:07:26.594Z,7.71
2022-12-08T11:08:26.446Z,7.77
2022-12-08T11:09:26.367Z,7.83
2022-12-08T11:10:29.407Z,7.93
2022-12-08T11:11:29.517Z,8.1
2022-12-08T11:12:26.672Z,8.17
2022-12-08T11:13:26.334Z,8.09
2022-12-08T11:14:26.252Z,8.16
2022-12-08T11:15:26.245Z,8.25
2022-12-08T11:16:26.311Z,8.3
2022-12-08T11:17:26.725Z,8.39
2022-12-08T11:18:26.474Z,8.28
2022-12-08T11:19:26.340Z,8.12
2022-12-08T11:20:26.717Z,8.1
2022-12-08T11:21:29.382Z,8.06
2022-12-08T11:22:26.628Z,8.05
2022-12-08T11:23:26.409Z,8.08
2022-12-08T11:24:26.229Z,8.09
2022-12-08T11:25:26.364Z,8.15
2022-12-08T11:26:26.371Z,8.07
2022-12-08T11:27:26.640Z,8.01
2022-12-08T11:28:26.371Z,8.01
2022-12-08T11:29:27.805Z,8.07
2022-12-08T11:30:26.323Z,8.1
2022-12-08T11:31:26.421Z,8.04
2022-12-08T11:32:32.358Z,8.04
2022-12-08T11:33:26.289Z,8.05
2022-12-08T11:34:26.325Z,8
2022-12-08T11:35:26.660Z,7.94
2022-12-08T11:36:26.318Z,7.83
2022-12-08T11:37:29.935Z,7.72
2022-12-08T11:38:26.347Z,7.76
2022-12-08T11:39:26.247Z,7.83
2022-12-08T11:40:26.321Z,7.87
2022-12-08T11:41:26.217Z,7.79
2022-12-08T11:42:26.731Z,7.73
2022-12-08T11:43:29.235Z,7.58
2022-12-08T11:44:26.331Z,7.53
2022-12-08T11:45:26.325Z,7.55
2022-12-08T11:46:26.385Z,7.59
2022-12-08T11:47:26.618Z,7.57
2022-12-08T11:48:26.443Z,7.59
2022-12-08T11:49:26.228Z,7.55
2022-12-08T11:50:26.670Z,7.44
2022-12-08T11:51:26.435Z,7.39
2022-12-08T11:52:26.672Z,7.34
2022-12-08T11:53:26.391Z,7.38
2022-12-08T11:54:29.235Z,7.5
2022-12-08T11:55:26.292Z,7.58
2022-12-08T11:56:26.301Z,7.74
2022-12-08T11:57:26.617Z,7.72
2022-12-08T11:58:26.474Z,7.89
2022-12-08T11:59:26.243Z,8.05
2022-12-08T12:00:26.384Z,8.18
2022-12-08T12:01:26.387Z,8.32
2022-12-08T12:02:26.692Z,8.46
2022-12-08T12:03:26.384Z,8.48
2022-12-08T12:04:26.255Z,8.38
2022-12-08T12:05:56.653Z,8.31
2022-12-08T12:07:45.513Z,8.22
2022-12-08T12:08:45.078Z,8.13
2022-12-08T12:09:44.974Z,7.99
2022-12-08T12:10:45.012Z,7.93
2022-12-08T12:11:45.066Z,7.82
2022-12-08T12:12:48.422Z,7.81
2022-12-08T12:13:45.168Z,7.8
2022-12-08T12:14:44.997Z,7.68
2022-12-08T12:15:44.985Z,7.64
2022-12-08T12:16:45.062Z,7.59
2022-12-08T12:17:45.438Z,7.59
2022-12-08T12:18:45.205Z,7.58
2022-12-08T12:19:45.111Z,7.6
2022-12-08T12:20:45.348Z,7.54
2022-12-08T12:21:45.064Z,7.5
2022-12-08T12:22:45.417Z,7.47
2022-12-08T12:23:44.985Z,7.32
2022-12-08T12:24:44.977Z,7.34
2022-12-08T12:25:45.087Z,7.3
2022-12-08T12:26:45.065Z,7.35
2022-12-08T12:27:45.344Z,7.42
2022-12-08T12:28:45.129Z,7.54
2022-12-08T12:29:45.010Z,7.56
2022-12-08T12:30:45.183Z,7.53
2022-12-08T12:31:45.121Z,7.48
2022-12-08T12:32:45.353Z,7.43
2022-12-08T12:33:48.033Z,7.38
2022-12-08T12:34:45.200Z,7.3
2022-12-08T12:35:45.412Z,7.24
2022-12-08T12:36:45.173Z,7.07
2022-12-08T12:37:45.468Z,7.02
2022-12-08T12:38:45.100Z,7.15
2022-12-08T12:39:48.046Z,7.17
2022-12-08T12:40:45.090Z,7.26
2022-12-08T12:41:45.116Z,7.35
2022-12-08T12:42:45.340Z,7.41
2022-12-08T12:43:45.059Z,7.44
2022-12-08T12:44:45.135Z,7.54
2022-12-08T12:45:45.074Z,7.6
2022-12-08T12:46:44.999Z,7.58
2022-12-08T12:47:45.414Z,7.55
2022-12-08T12:48:45.069Z,7.52
2022-12-08T12:49:44.981Z,7.58
2022-12-08T12:50:51.029Z,7.62
2022-12-08T12:51:45.064Z,7.83
2022-12-08T12:52:45.359Z,7.98
2022-12-08T12:53:45.137Z,8.12
2022-12-08T12:54:45.111Z,8.16
2022-12-08T12:55:45.064Z,8.37
2022-12-08T12:56:45.138Z,8.47
2022-12-08T12:57:45.418Z,8.59
2022-12-08T12:58:45.043Z,8.77
2022-12-08T12:59:46.996Z,8.89
2022-12-08T13:00:45.086Z,8.97
2022-12-08T13:01:48.011Z,8.93
2022-12-08T13:02:45.424Z,8.93
2022-12-08T13:03:45.053Z,8.74
2022-12-08T13:04:45.116Z,8.64
2022-12-08T13:05:45.345Z,8.61
2022-12-08T13:06:45.038Z,8.54
2022-12-08T13:07:45.419Z,8.44
2022-12-08T13:08:44.977Z,8.39
2022-12-08T13:09:45.040Z,8.47
2022-12-08T13:10:45.084Z,8.57
2022-12-08T13:11:47.804Z,8.56
2022-12-08T13:12:51.105Z,8.54
2022-12-08T13:13:45.086Z,8.41
2022-12-08T13:14:44.974Z,8.25
2022-12-08T13:15:45.165Z,8.18
2022-12-08T13:16:45.135Z,8.24
2022-12-08T13:17:45.406Z,8.29
2022-12-08T13:18:45.010Z,8.3
2022-12-08T13:19:51.418Z,8.26
2022-12-08T13:20:45.346Z,8.16
2022-12-08T13:21:45.064Z,8.11
2022-12-08T13:22:45.406Z,8.09
2022-12-08T13:23:48.039Z,8.04
2022-12-08T13:24:45.151Z,8.05